sensor_id;sensor_type;location;lat;lon;timestamp;pressure;altitude;pressure_sealevel;temperature;humidity
66945;BME280;53853;51.982;5.928;2023-03-15T00:01:41;101043.75;;;4.37;77.65
66945;BME280;53853;51.982;5.928;2023-03-15T00:04:12;101062.31;;;4.23;77.38
66945;BME280;53853;51.982;5.928;2023-03-15T00:06:42;101053.97;;;4.16;77.79
66945;BME280;53853;51.982;5.928;2023-03-15T00:09:12;101051.53;;;4.13;78.36
66945;BME280;53853;51.982;5.928;2023-03-15T00:11:42;101056.28;;;4.08;78.63
66945;BME280;53853;51.982;5.928;2023-03-15T00:14:15;101050.25;;;4.06;78.75
66945;BME280;53853;51.982;5.928;2023-03-15T00:16:45;101057.22;;;4.07;79.01
66945;BME280;53853;51.982;5.928;2023-03-15T00:19:15;101059.75;;;4.08;79.21
66945;BME280;53853;51.982;5.928;2023-03-15T00:21:44;101064.09;;;4.09;79.00
66945;BME280;53853;51.982;5.928;2023-03-15T00:24:14;101049.00;;;4.11;79.02
66945;BME280;53853;51.982;5.928;2023-03-15T00:26:44;101047.50;;;4.07;78.85
66945;BME280;53853;51.982;5.928;2023-03-15T00:29:17;101044.78;;;4.09;79.04
66945;BME280;53853;51.982;5.928;2023-03-15T00:31:46;101052.78;;;4.07;78.90
66945;BME280;53853;51.982;5.928;2023-03-15T00:34:17;101055.41;;;4.07;78.97
66945;BME280;53853;51.982;5.928;2023-03-15T00:36:50;101068.31;;;4.12;79.31
66945;BME280;53853;51.982;5.928;2023-03-15T00:39:20;101065.22;;;4.05;79.34
66945;BME280;53853;51.982;5.928;2023-03-15T00:41:51;101059.97;;;4.05;79.49
66945;BME280;53853;51.982;5.928;2023-03-15T00:44:25;101060.78;;;4.06;79.40
66945;BME280;53853;51.982;5.928;2023-03-15T00:46:55;101058.16;;;4.06;79.56
66945;BME280;53853;51.982;5.928;2023-03-15T00:49:25;101071.34;;;4.06;79.84
66945;BME280;53853;51.982;5.928;2023-03-15T00:51:55;101061.75;;;4.05;79.68
66945;BME280;53853;51.982;5.928;2023-03-15T00:54:25;101064.41;;;4.05;79.39
66945;BME280;53853;51.982;5.928;2023-03-15T00:56:55;101066.47;;;3.99;79.25
66945;BME280;53853;51.982;5.928;2023-03-15T00:59:28;101068.16;;;4.01;79.80
66945;BME280;53853;51.982;5.928;2023-03-15T01:02:00;101075.03;;;4.03;79.92
66945;BME280;53853;51.982;5.928;2023-03-15T01:04:30;101078.31;;;4.07;79.71
66945;BME280;53853;51.982;5.928;2023-03-15T01:07:00;101077.47;;;4.06;79.85
66945;BME280;53853;51.982;5.928;2023-03-15T01:09:31;101072.09;;;4.08;79.76
66945;BME280;53853;51.982;5.928;2023-03-15T01:12:01;101077.91;;;4.13;80.09
66945;BME280;53853;51.982;5.928;2023-03-15T01:14:34;101088.25;;;4.16;80.07
66945;BME280;53853;51.982;5.928;2023-03-15T01:17:06;101084.75;;;4.15;80.25
66945;BME280;53853;51.982;5.928;2023-03-15T01:19:36;101083.63;;;4.20;80.42
66945;BME280;53853;51.982;5.928;2023-03-15T01:22:06;101096.06;;;4.17;79.70
66945;BME280;53853;51.982;5.928;2023-03-15T01:24:36;101094.47;;;4.15;79.76
66945;BME280;53853;51.982;5.928;2023-03-15T01:27:06;101091.19;;;4.11;79.98
66945;BME280;53853;51.982;5.928;2023-03-15T01:29:38;101092.53;;;4.04;79.81
66945;BME280;53853;51.982;5.928;2023-03-15T01:32:10;101098.47;;;4.08;80.17
66945;BME280;53853;51.982;5.928;2023-03-15T01:34:41;101103.66;;;4.09;80.37
66945;BME280;53853;51.982;5.928;2023-03-15T01:37:11;101113.78;;;4.15;80.57
66945;BME280;53853;51.982;5.928;2023-03-15T01:39:44;101111.91;;;4.17;80.60
66945;BME280;53853;51.982;5.928;2023-03-15T01:42:17;101115.28;;;4.20;80.54
66945;BME280;53853;51.982;5.928;2023-03-15T01:44:54;101119.41;;;4.24;80.61
66945;BME280;53853;51.982;5.928;2023-03-15T01:47:26;101123.41;;;4.29;80.78
66945;BME280;53853;51.982;5.928;2023-03-15T01:50:03;101122.47;;;4.30;80.29
66945;BME280;53853;51.982;5.928;2023-03-15T01:52:37;101129.47;;;4.31;80.25
66945;BME280;53853;51.982;5.928;2023-03-15T01:55:14;101125.13;;;4.30;79.76
66945;BME280;53853;51.982;5.928;2023-03-15T01:57:59;101129.88;;;4.25;79.47
66945;BME280;53853;51.982;5.928;2023-03-15T02:00:35;101126.66;;;4.20;80.05
66945;BME280;53853;51.982;5.928;2023-03-15T02:03:14;101133.63;;;4.21;80.28
66945;BME280;53853;51.982;5.928;2023-03-15T02:05:51;101136.19;;;4.23;80.27
66945;BME280;53853;51.982;5.928;2023-03-15T02:09:00;101134.56;;;4.20;80.25
66945;BME280;53853;51.982;5.928;2023-03-15T02:11:34;101141.66;;;4.20;80.42
66945;BME280;53853;51.982;5.928;2023-03-15T02:14:05;101149.56;;;4.20;80.43
66945;BME280;53853;51.982;5.928;2023-03-15T02:16:42;101141.00;;;4.16;80.00
66945;BME280;53853;51.982;5.928;2023-03-15T02:19:24;101140.16;;;4.15;80.33
66945;BME280;53853;51.982;5.928;2023-03-15T02:22:04;101142.69;;;4.17;80.53
66945;BME280;53853;51.982;5.928;2023-03-15T02:24:44;101142.50;;;4.20;80.45
66945;BME280;53853;51.982;5.928;2023-03-15T02:27:25;101140.63;;;4.22;80.69
66945;BME280;53853;51.982;5.928;2023-03-15T02:29:56;101147.75;;;4.20;80.00
66945;BME280;53853;51.982;5.928;2023-03-15T02:32:29;101144.50;;;4.16;80.18
66945;BME280;53853;51.982;5.928;2023-03-15T02:34:59;101143.84;;;4.13;80.09
66945;BME280;53853;51.982;5.928;2023-03-15T02:37:30;101156.81;;;4.03;79.64
66945;BME280;53853;51.982;5.928;2023-03-15T02:40:00;101159.53;;;4.02;80.19
66945;BME280;53853;51.982;5.928;2023-03-15T02:42:34;101150.84;;;3.99;80.54
66945;BME280;53853;51.982;5.928;2023-03-15T02:45:05;101159.09;;;3.95;80.20
66945;BME280;53853;51.982;5.928;2023-03-15T02:47:35;101164.75;;;3.89;80.12
66945;BME280;53853;51.982;5.928;2023-03-15T02:50:06;101162.72;;;3.79;80.05
66945;BME280;53853;51.982;5.928;2023-03-15T02:52:36;101171.84;;;3.74;80.39
66945;BME280;53853;51.982;5.928;2023-03-15T02:55:07;101170.72;;;3.78;80.66
66945;BME280;53853;51.982;5.928;2023-03-15T02:57:40;101172.03;;;3.71;80.68
66945;BME280;53853;51.982;5.928;2023-03-15T03:00:11;101176.00;;;3.63;80.80
66945;BME280;53853;51.982;5.928;2023-03-15T03:02:45;101192.94;;;3.59;80.91
66945;BME280;53853;51.982;5.928;2023-03-15T03:05:16;101198.13;;;3.61;81.28
66945;BME280;53853;51.982;5.928;2023-03-15T03:07:46;101203.19;;;3.64;81.60
66945;BME280;53853;51.982;5.928;2023-03-15T03:10:18;101200.66;;;3.62;81.13
66945;BME280;53853;51.982;5.928;2023-03-15T03:12:57;101211.22;;;3.62;81.44
66945;BME280;53853;51.982;5.928;2023-03-15T03:15:32;101221.94;;;3.59;81.26
66945;BME280;53853;51.982;5.928;2023-03-15T03:18:02;101224.66;;;3.58;81.56
66945;BME280;53853;51.982;5.928;2023-03-15T03:20:32;101221.94;;;3.59;81.58
66945;BME280;53853;51.982;5.928;2023-03-15T03:23:02;101234.19;;;3.60;81.90
66945;BME280;53853;51.982;5.928;2023-03-15T03:25:33;101236.63;;;3.63;81.75
66945;BME280;53853;51.982;5.928;2023-03-15T03:28:06;101239.25;;;3.63;81.78
66945;BME280;53853;51.982;5.928;2023-03-15T03:30:35;101246.22;;;3.65;81.83
66945;BME280;53853;51.982;5.928;2023-03-15T03:33:05;101246.22;;;3.65;82.06
66945;BME280;53853;51.982;5.928;2023-03-15T03:35:35;101254.97;;;3.65;82.03
66945;BME280;53853;51.982;5.928;2023-03-15T03:38:05;101255.81;;;3.66;82.10
66945;BME280;53853;51.982;5.928;2023-03-15T03:40:39;101261.84;;;3.68;82.32
66945;BME280;53853;51.982;5.928;2023-03-15T03:43:12;101257.53;;;3.67;82.39
66945;BME280;53853;51.982;5.928;2023-03-15T03:45:41;101267.19;;;3.66;82.13
66945;BME280;53853;51.982;5.928;2023-03-15T03:48:12;101262.91;;;3.65;82.09
66945;BME280;53853;51.982;5.928;2023-03-15T03:50:42;101269.00;;;3.66;82.21
66945;BME280;53853;51.982;5.928;2023-03-15T03:53:12;101263.72;;;3.66;82.17
66945;BME280;53853;51.982;5.928;2023-03-15T03:55:41;101273.53;;;3.63;82.42
66945;BME280;53853;51.982;5.928;2023-03-15T03:58:19;101288.56;;;3.61;82.33
66945;BME280;53853;51.982;5.928;2023-03-15T04:00:58;101294.03;;;3.58;82.27
66945;BME280;53853;51.982;5.928;2023-03-15T04:03:32;101290.81;;;3.53;82.39
66945;BME280;53853;51.982;5.928;2023-03-15T04:06:09;101302.41;;;3.51;82.39
66945;BME280;53853;51.982;5.928;2023-03-15T04:08:42;101306.06;;;3.48;82.48
66945;BME280;53853;51.982;5.928;2023-03-15T04:11:17;101309.63;;;3.47;82.58
66945;BME280;53853;51.982;5.928;2023-03-15T04:13:56;101312.47;;;3.44;82.27
66945;BME280;53853;51.982;5.928;2023-03-15T04:16:26;101316.13;;;3.41;82.28
66945;BME280;53853;51.982;5.928;2023-03-15T04:19:03;101313.69;;;3.38;82.51
66945;BME280;53853;51.982;5.928;2023-03-15T04:21:34;101318.13;;;3.38;82.26
66945;BME280;53853;51.982;5.928;2023-03-15T04:24:23;101317.34;;;3.36;82.50
66945;BME280;53853;51.982;5.928;2023-03-15T04:27:19;101314.06;;;3.32;82.64
66945;BME280;53853;51.982;5.928;2023-03-15T04:30:01;101326.38;;;3.32;82.82
66945;BME280;53853;51.982;5.928;2023-03-15T04:32:55;101330.69;;;3.33;82.77
66945;BME280;53853;51.982;5.928;2023-03-15T04:35:44;101337.66;;;3.34;83.00
66945;BME280;53853;51.982;5.928;2023-03-15T04:38:35;101346.31;;;3.36;82.81
66945;BME280;53853;51.982;5.928;2023-03-15T04:41:24;101346.13;;;3.39;82.29
66945;BME280;53853;51.982;5.928;2023-03-15T04:44:04;101343.41;;;3.40;82.29
66945;BME280;53853;51.982;5.928;2023-03-15T04:47:01;101349.34;;;3.44;82.71
66945;BME280;53853;51.982;5.928;2023-03-15T04:50:00;101351.97;;;3.44;82.36
66945;BME280;53853;51.982;5.928;2023-03-15T04:52:36;101354.63;;;3.44;82.59
66945;BME280;53853;51.982;5.928;2023-03-15T04:55:31;101357.25;;;3.44;82.95
66945;BME280;53853;51.982;5.928;2023-03-15T04:58:14;101365.25;;;3.42;82.88
66945;BME280;53853;51.982;5.928;2023-03-15T05:01:00;101373.22;;;3.41;82.50
66945;BME280;53853;51.982;5.928;2023-03-15T05:03:51;101377.84;;;3.37;82.06
66945;BME280;53853;51.982;5.928;2023-03-15T05:06:39;101384.16;;;3.35;81.92
66945;BME280;53853;51.982;5.928;2023-03-15T05:09:29;101385.09;;;3.34;82.18
66945;BME280;53853;51.982;5.928;2023-03-15T05:12:30;101384.16;;;3.35;82.05
66945;BME280;53853;51.982;5.928;2023-03-15T05:15:15;101391.28;;;3.33;82.07
66945;BME280;53853;51.982;5.928;2023-03-15T05:18:01;101408.97;;;3.31;82.22
66945;BME280;53853;51.982;5.928;2023-03-15T05:20:36;101414.25;;;3.31;82.10
66945;BME280;53853;51.982;5.928;2023-03-15T05:23:29;101412.78;;;3.25;81.97
66945;BME280;53853;51.982;5.928;2023-03-15T05:26:25;101413.94;;;3.21;82.04
66945;BME280;53853;51.982;5.928;2023-03-15T05:29:12;101419.28;;;3.19;82.23
66945;BME280;53853;51.982;5.928;2023-03-15T05:32:00;101422.84;;;3.18;82.43
66945;BME280;53853;51.982;5.928;2023-03-15T05:34:53;101422.00;;;3.18;82.74
66945;BME280;53853;51.982;5.928;2023-03-15T05:37:48;101432.53;;;3.18;82.29
66945;BME280;53853;51.982;5.928;2023-03-15T05:40:37;101432.63;;;3.16;82.46
66945;BME280;53853;51.982;5.928;2023-03-15T05:43:25;101440.69;;;3.13;82.41
66945;BME280;53853;51.982;5.928;2023-03-15T05:46:15;101437.31;;;3.11;82.62
66945;BME280;53853;51.982;5.928;2023-03-15T05:49:09;101442.56;;;3.11;82.66
66945;BME280;53853;51.982;5.928;2023-03-15T05:51:49;101439.00;;;3.12;82.67
66945;BME280;53853;51.982;5.928;2023-03-15T05:54:39;101437.47;;;3.08;82.21
66945;BME280;53853;51.982;5.928;2023-03-15T05:57:28;101430.50;;;3.07;82.27
66945;BME280;53853;51.982;5.928;2023-03-15T06:00:17;101444.59;;;3.06;82.51
66945;BME280;53853;51.982;5.928;2023-03-15T06:02:51;101448.19;;;3.05;81.99
66945;BME280;53853;51.982;5.928;2023-03-15T06:05:47;101451.91;;;3.01;81.51
66945;BME280;53853;51.982;5.928;2023-03-15T06:08:23;101458.13;;;3.00;81.53
66945;BME280;53853;51.982;5.928;2023-03-15T06:10:56;101458.13;;;3.00;81.61
66945;BME280;53853;51.982;5.928;2023-03-15T06:13:26;101464.31;;;2.99;81.70
66945;BME280;53853;51.982;5.928;2023-03-15T06:15:57;101472.22;;;2.99;81.71
66945;BME280;53853;51.982;5.928;2023-03-15T06:18:27;101471.38;;;2.98;81.86
66945;BME280;53853;51.982;5.928;2023-03-15T06:20:56;101481.84;;;3.00;81.92
66945;BME280;53853;51.982;5.928;2023-03-15T06:23:27;101478.31;;;2.99;81.65
66945;BME280;53853;51.982;5.928;2023-03-15T06:26:00;101497.63;;;3.00;81.53
66945;BME280;53853;51.982;5.928;2023-03-15T06:28:31;101498.31;;;3.03;81.70
66945;BME280;53853;51.982;5.928;2023-03-15T06:31:05;101510.69;;;3.01;81.67
66945;BME280;53853;51.982;5.928;2023-03-15T06:33:43;101513.06;;;3.06;81.69
66945;BME280;53853;51.982;5.928;2023-03-15T06:36:14;101507.53;;;3.11;81.65
66945;BME280;53853;51.982;5.928;2023-03-15T06:38:44;101508.75;;;3.21;82.17
66945;BME280;53853;51.982;5.928;2023-03-15T06:41:17;101510.16;;;3.26;81.32
66945;BME280;53853;51.982;5.928;2023-03-15T06:43:47;101520.28;;;3.34;81.75
66945;BME280;53853;51.982;5.928;2023-03-15T06:46:17;101520.13;;;3.37;81.87
66945;BME280;53853;51.982;5.928;2023-03-15T06:48:47;101526.13;;;3.39;82.21
66945;BME280;53853;51.982;5.928;2023-03-15T06:51:18;101535.00;;;3.38;81.91
66945;BME280;53853;51.982;5.928;2023-03-15T06:53:48;101539.31;;;3.39;81.77
66945;BME280;53853;51.982;5.928;2023-03-15T06:56:21;101537.38;;;3.43;82.28
66945;BME280;53853;51.982;5.928;2023-03-15T06:58:51;101542.66;;;3.43;81.69
66945;BME280;53853;51.982;5.928;2023-03-15T07:01:21;101553.00;;;3.46;81.62
66945;BME280;53853;51.982;5.928;2023-03-15T07:03:51;101554.53;;;3.50;81.48
66945;BME280;53853;51.982;5.928;2023-03-15T07:06:21;101557.06;;;3.52;80.78
66945;BME280;53853;51.982;5.928;2023-03-15T07:08:51;101562.69;;;3.45;80.38
66945;BME280;53853;51.982;5.928;2023-03-15T07:11:23;101566.03;;;3.49;81.68
66945;BME280;53853;51.982;5.928;2023-03-15T07:13:53;101565.06;;;3.50;81.95
66945;BME280;53853;51.982;5.928;2023-03-15T07:16:24;101575.44;;;3.53;81.61
66945;BME280;53853;51.982;5.928;2023-03-15T07:18:54;101584.28;;;3.52;80.08
66945;BME280;53853;51.982;5.928;2023-03-15T07:21:25;101589.09;;;3.60;80.29
66945;BME280;53853;51.982;5.928;2023-03-15T07:23:56;101590.66;;;3.64;79.91
66945;BME280;53853;51.982;5.928;2023-03-15T07:26:28;101590.41;;;3.69;79.72
66945;BME280;53853;51.982;5.928;2023-03-15T07:28:58;101592.09;;;3.70;79.57
66945;BME280;53853;51.982;5.928;2023-03-15T07:31:28;101598.13;;;3.72;79.29
66945;BME280;53853;51.982;5.928;2023-03-15T07:33:58;101599.28;;;3.82;80.34
66945;BME280;53853;51.982;5.928;2023-03-15T07:36:28;101601.59;;;3.88;80.42
66945;BME280;53853;51.982;5.928;2023-03-15T07:38:58;101601.91;;;3.98;81.18
66945;BME280;53853;51.982;5.928;2023-03-15T07:41:30;101598.81;;;4.06;81.16
66945;BME280;53853;51.982;5.928;2023-03-15T07:44:14;101620.31;;;4.14;81.02
66945;BME280;53853;51.982;5.928;2023-03-15T07:46:44;101609.59;;;4.17;79.13
66945;BME280;53853;51.982;5.928;2023-03-15T07:49:14;101618.22;;;4.21;79.53
66945;BME280;53853;51.982;5.928;2023-03-15T07:51:44;101614.44;;;4.25;79.61
66945;BME280;53853;51.982;5.928;2023-03-15T07:54:14;101623.78;;;4.30;79.88
66945;BME280;53853;51.982;5.928;2023-03-15T07:56:47;101633.03;;;4.38;79.68
66945;BME280;53853;51.982;5.928;2023-03-15T07:59:17;101638.91;;;4.43;79.10
66945;BME280;53853;51.982;5.928;2023-03-15T08:01:47;101646.56;;;4.47;78.26
66945;BME280;53853;51.982;5.928;2023-03-15T08:04:17;101651.34;;;4.55;78.16
66945;BME280;53853;51.982;5.928;2023-03-15T08:06:47;101658.09;;;4.61;78.08
66945;BME280;53853;51.982;5.928;2023-03-15T08:09:17;101662.16;;;4.66;78.69
66945;BME280;53853;51.982;5.928;2023-03-15T08:11:49;101662.81;;;4.70;78.71
66945;BME280;53853;51.982;5.928;2023-03-15T08:14:19;101664.31;;;4.74;78.06
66945;BME280;53853;51.982;5.928;2023-03-15T08:16:49;101663.47;;;4.74;77.53
66945;BME280;53853;51.982;5.928;2023-03-15T08:19:19;101666.78;;;4.77;77.69
66945;BME280;53853;51.982;5.928;2023-03-15T08:21:50;101676.03;;;4.84;78.24
66945;BME280;53853;51.982;5.928;2023-03-15T08:24:20;101683.34;;;4.95;79.06
66945;BME280;53853;51.982;5.928;2023-03-15T08:26:53;101680.41;;;5.00;79.06
66945;BME280;53853;51.982;5.928;2023-03-15T08:29:22;101687.75;;;5.09;79.32
66945;BME280;53853;51.982;5.928;2023-03-15T08:31:52;101676.91;;;5.14;78.61
66945;BME280;53853;51.982;5.928;2023-03-15T08:34:23;101672.97;;;5.21;79.10
66945;BME280;53853;51.982;5.928;2023-03-15T08:36:53;101679.75;;;5.25;78.04
66945;BME280;53853;51.982;5.928;2023-03-15T08:39:22;101686.53;;;5.29;77.02
66945;BME280;53853;51.982;5.928;2023-03-15T08:41:55;101693.91;;;5.38;78.40
66945;BME280;53853;51.982;5.928;2023-03-15T08:44:25;101691.81;;;5.43;78.29
66945;BME280;53853;51.982;5.928;2023-03-15T08:46:55;101698.44;;;5.51;78.49
66945;BME280;53853;51.982;5.928;2023-03-15T08:49:25;101701.63;;;5.56;77.14
66945;BME280;53853;51.982;5.928;2023-03-15T08:51:55;101704.66;;;5.64;77.79
66945;BME280;53853;51.982;5.928;2023-03-15T08:54:25;101711.66;;;5.65;76.00
66945;BME280;53853;51.982;5.928;2023-03-15T08:56:57;101708.81;;;5.68;75.91
66945;BME280;53853;51.982;5.928;2023-03-15T08:59:27;101711.91;;;5.75;75.16
66945;BME280;53853;51.982;5.928;2023-03-15T09:01:59;101715.88;;;5.82;75.00
66945;BME280;53853;51.982;5.928;2023-03-15T09:04:29;101715.16;;;5.93;75.81
66945;BME280;53853;51.982;5.928;2023-03-15T09:06:59;101721.06;;;5.98;72.12
66945;BME280;53853;51.982;5.928;2023-03-15T09:09:29;101720.88;;;6.01;72.36
66945;BME280;53853;51.982;5.928;2023-03-15T09:12:02;101718.78;;;6.06;72.92
66945;BME280;53853;51.982;5.928;2023-03-15T09:14:32;101725.56;;;6.10;72.73
66945;BME280;53853;51.982;5.928;2023-03-15T09:17:02;101729.63;;;6.16;72.45
66945;BME280;53853;51.982;5.928;2023-03-15T09:19:32;101727.59;;;6.20;71.66
66945;BME280;53853;51.982;5.928;2023-03-15T09:22:01;101725.84;;;6.20;68.54
66945;BME280;53853;51.982;5.928;2023-03-15T09:24:32;101729.31;;;6.21;69.57
66945;BME280;53853;51.982;5.928;2023-03-15T09:27:04;101731.47;;;6.28;71.64
66945;BME280;53853;51.982;5.928;2023-03-15T09:29:34;101733.72;;;6.34;71.54
66945;BME280;53853;51.982;5.928;2023-03-15T09:32:04;101730.97;;;6.36;70.92
66945;BME280;53853;51.982;5.928;2023-03-15T09:34:35;101732.25;;;6.43;72.30
66945;BME280;53853;51.982;5.928;2023-03-15T09:37:06;101730.16;;;6.48;72.26
66945;BME280;53853;51.982;5.928;2023-03-15T09:39:37;101733.16;;;6.57;71.90
66945;BME280;53853;51.982;5.928;2023-03-15T09:42:16;101737.19;;;6.62;68.83
66945;BME280;53853;51.982;5.928;2023-03-15T09:44:54;101741.84;;;6.59;66.88
66945;BME280;53853;51.982;5.928;2023-03-15T09:47:36;101738.03;;;6.63;66.99
66945;BME280;53853;51.982;5.928;2023-03-15T09:50:16;101734.88;;;6.70;66.82
66945;BME280;53853;51.982;5.928;2023-03-15T09:52:49;101737.22;;;6.75;66.05
66945;BME280;53853;51.982;5.928;2023-03-15T09:55:22;101739.44;;;6.81;68.82
66945;BME280;53853;51.982;5.928;2023-03-15T09:57:58;101742.53;;;6.88;64.92
66945;BME280;53853;51.982;5.928;2023-03-15T10:00:34;101749.22;;;6.94;66.58
66945;BME280;53853;51.982;5.928;2023-03-15T10:03:05;101750.81;;;6.96;61.45
66945;BME280;53853;51.982;5.928;2023-03-15T10:05:42;101750.81;;;6.96;62.97
66945;BME280;53853;51.982;5.928;2023-03-15T10:08:15;101748.72;;;7.01;64.67
66945;BME280;53853;51.982;5.928;2023-03-15T10:10:50;101741.19;;;7.08;66.03
66945;BME280;53853;51.982;5.928;2023-03-15T10:13:42;101742.44;;;7.15;61.00
66945;BME280;53853;51.982;5.928;2023-03-15T10:16:25;101751.91;;;7.19;62.97
66945;BME280;53853;51.982;5.928;2023-03-15T10:19:03;101752.63;;;7.21;64.74
66945;BME280;53853;51.982;5.928;2023-03-15T10:21:39;101750.84;;;7.22;59.53
66945;BME280;53853;51.982;5.928;2023-03-15T10:24:17;101750.97;;;7.20;60.44
66945;BME280;53853;51.982;5.928;2023-03-15T10:26:50;101753.19;;;7.27;63.84
66945;BME280;53853;51.982;5.928;2023-03-15T10:29:25;101754.44;;;7.34;63.19
66945;BME280;53853;51.982;5.928;2023-03-15T10:31:55;101746.19;;;7.38;62.84
66945;BME280;53853;51.982;5.928;2023-03-15T10:34:26;101746.69;;;7.43;63.97
66945;BME280;53853;51.982;5.928;2023-03-15T10:36:56;101747.34;;;7.47;59.29
66945;BME280;53853;51.982;5.928;2023-03-15T10:39:26;101742.16;;;7.46;60.63
66945;BME280;53853;51.982;5.928;2023-03-15T10:41:56;101743.72;;;7.48;61.14
66945;BME280;53853;51.982;5.928;2023-03-15T10:44:28;101740.44;;;7.57;64.81
66945;BME280;53853;51.982;5.928;2023-03-15T10:47:03;101741.06;;;7.61;59.00
66945;BME280;53853;51.982;5.928;2023-03-15T10:49:36;101751.44;;;7.64;57.59
66945;BME280;53853;51.982;5.928;2023-03-15T10:52:27;101746.16;;;7.64;54.63
66945;BME280;53853;51.982;5.928;2023-03-15T10:55:03;101764.59;;;7.66;58.85
66945;BME280;53853;51.982;5.928;2023-03-15T10:57:37;101762.16;;;7.75;59.72
66945;BME280;53853;51.982;5.928;2023-03-15T11:00:25;101766.38;;;7.91;55.66
66945;BME280;53853;51.982;5.928;2023-03-15T11:03:03;101770.09;;;8.01;55.36
66945;BME280;53853;51.982;5.928;2023-03-15T11:05:39;101777.94;;;8.03;54.39
66945;BME280;53853;51.982;5.928;2023-03-15T11:08:12;101771.66;;;8.04;56.67
66945;BME280;53853;51.982;5.928;2023-03-15T11:10:43;101778.22;;;8.11;54.67
66945;BME280;53853;51.982;5.928;2023-03-15T11:13:19;101776.81;;;8.18;58.72
66945;BME280;53853;51.982;5.928;2023-03-15T11:16:00;101786.47;;;8.19;57.68
66945;BME280;53853;51.982;5.928;2023-03-15T11:18:34;101783.00;;;8.19;53.66
66945;BME280;53853;51.982;5.928;2023-03-15T11:21:07;101790.63;;;8.23;52.72
66945;BME280;53853;51.982;5.928;2023-03-15T11:23:42;101794.13;;;8.24;53.17
66945;BME280;53853;51.982;5.928;2023-03-15T11:26:17;101801.25;;;8.23;54.62
66945;BME280;53853;51.982;5.928;2023-03-15T11:28:49;101795.06;;;8.23;55.56
66945;BME280;53853;51.982;5.928;2023-03-15T11:31:26;101799.44;;;8.24;55.37
66945;BME280;53853;51.982;5.928;2023-03-15T11:33:58;101808.00;;;8.27;57.47
66945;BME280;53853;51.982;5.928;2023-03-15T11:36:33;101808.13;;;8.26;52.26
66945;BME280;53853;51.982;5.928;2023-03-15T11:39:05;101806.84;;;8.31;56.22
66945;BME280;53853;51.982;5.928;2023-03-15T11:41:40;101803.53;;;8.28;48.30
66945;BME280;53853;51.982;5.928;2023-03-15T11:44:15;101796.59;;;8.14;49.01
66945;BME280;53853;51.982;5.928;2023-03-15T11:46:54;101803.81;;;8.12;49.73
66945;BME280;53853;51.982;5.928;2023-03-15T11:49:34;101798.28;;;8.15;52.07
66945;BME280;53853;51.982;5.928;2023-03-15T11:52:06;101803.91;;;8.23;53.24
66945;BME280;53853;51.982;5.928;2023-03-15T11:54:36;101799.88;;;8.18;49.06
66945;BME280;53853;51.982;5.928;2023-03-15T11:57:33;101799.75;;;8.19;52.64
66945;BME280;53853;51.982;5.928;2023-03-15T12:03:27;101788.69;;;8.25;53.51
66945;BME280;53853;51.982;5.928;2023-03-15T12:06:10;101784.94;;;8.28;50.76
66945;BME280;53853;51.982;5.928;2023-03-15T12:08:43;101787.38;;;8.31;51.92
66945;BME280;53853;51.982;5.928;2023-03-15T12:11:39;101779.53;;;8.29;51.01
66945;BME280;53853;51.982;5.928;2023-03-15T12:14:28;101772.31;;;8.31;47.63
66945;BME280;53853;51.982;5.928;2023-03-15T12:20:20;101782.94;;;8.31;48.33
66945;BME280;53853;51.982;5.928;2023-03-15T12:22:53;101778.25;;;8.35;50.75
66945;BME280;53853;51.982;5.928;2023-03-15T12:25:30;101772.59;;;8.40;48.62
66945;BME280;53853;51.982;5.928;2023-03-15T12:28:06;101774.19;;;8.42;43.79
66945;BME280;53853;51.982;5.928;2023-03-15T12:30:40;101781.41;;;8.40;45.68
66945;BME280;53853;51.982;5.928;2023-03-15T12:33:12;101781.75;;;8.35;44.85
66945;BME280;53853;51.982;5.928;2023-03-15T12:35:45;101791.63;;;8.33;47.40
66945;BME280;53853;51.982;5.928;2023-03-15T12:38:17;101782.72;;;8.34;50.13
66945;BME280;53853;51.982;5.928;2023-03-15T12:40:51;101781.53;;;8.39;53.27
66945;BME280;53853;51.982;5.928;2023-03-15T12:43:38;101792.78;;;8.42;51.23
66945;BME280;53853;51.982;5.928;2023-03-15T12:46:52;101781.97;;;8.45;55.45
66945;BME280;53853;51.982;5.928;2023-03-15T12:49:34;101783.31;;;8.51;53.21
66945;BME280;53853;51.982;5.928;2023-03-15T12:52:11;101779.94;;;8.49;51.89
66945;BME280;53853;51.982;5.928;2023-03-15T12:54:45;101780.66;;;8.51;49.43
66945;BME280;53853;51.982;5.928;2023-03-15T12:57:19;101782.97;;;8.56;50.66
66945;BME280;53853;51.982;5.928;2023-03-15T12:59:53;101777.53;;;8.57;53.49
66945;BME280;53853;51.982;5.928;2023-03-15T13:02:31;101775.38;;;8.62;55.66
66945;BME280;53853;51.982;5.928;2023-03-15T13:05:18;101782.91;;;8.68;45.69
66945;BME280;53853;51.982;5.928;2023-03-15T13:08:05;101780.47;;;8.65;46.76
66945;BME280;53853;51.982;5.928;2023-03-15T13:10:56;101789.66;;;8.61;45.68
66945;BME280;53853;51.982;5.928;2023-03-15T13:13:44;101786.59;;;8.55;48.13
66945;BME280;53853;51.982;5.928;2023-03-15T13:16:27;101780.09;;;8.59;51.99
66945;BME280;53853;51.982;5.928;2023-03-15T13:19:03;101780.47;;;8.65;47.85
66945;BME280;53853;51.982;5.928;2023-03-15T13:21:46;101780.25;;;8.68;45.57
66945;BME280;53853;51.982;5.928;2023-03-15T13:24:24;101782.78;;;8.70;46.44
66945;BME280;53853;51.982;5.928;2023-03-15T13:27:00;101783.03;;;8.67;48.78
66945;BME280;53853;51.982;5.928;2023-03-15T13:29:34;101785.69;;;8.67;47.00
66945;BME280;53853;51.982;5.928;2023-03-15T13:32:12;101784.84;;;8.66;45.78
66945;BME280;53853;51.982;5.928;2023-03-15T13:34:44;101783.63;;;8.70;49.99
66945;BME280;53853;51.982;5.928;2023-03-15T13:37:20;101770.47;;;8.69;47.21
66945;BME280;53853;51.982;5.928;2023-03-15T13:39:56;101780.75;;;8.74;47.66
66945;BME280;53853;51.982;5.928;2023-03-15T13:42:28;101782.13;;;8.79;50.61
66945;BME280;53853;51.982;5.928;2023-03-15T13:45:11;101776.13;;;8.88;52.95
66945;BME280;53853;51.982;5.928;2023-03-15T13:47:43;101789.78;;;8.95;44.68
66945;BME280;53853;51.982;5.928;2023-03-15T13:50:15;101784.22;;;8.98;42.15